Menu Close Menu
Station Historical Data
Daily Summary for November 22, 2017 Units:  Metric    English   Both
« Previous Day
Next Day »
Daily Weekly Monthly Yearly Custom
  High: Low: Average:
Temperature: 16 °C 4.9 °C 10.6 °C
Dew Point: 10.3 °C 0 °C 4.7 °C
Humidity: 92% 43% 69%
Wind Speed: 9.3km/h 0km/h 2.7km/h
Wind Gust: 9.3km/h - -
Wind- - SSW
Pressure: 1020.5 hPa 1016.8 hPa -
Precipitation: 0 mm    
Historical Graphs
 
 
Tabular Data for November 22, 2017
Time Temperature Dew Point Pressure Wind Wind Speed Wind Gust Humidity Rainfall Rate (Hourly) solar Conditions
00:00 11 °C 9.4 °C 1018.2 hPa NNE 1.9 km/h   90% 0 mm WeatherDisplay:10.37 W/m2 BKN
00:03 11 °C 9.4 °C 1017.8 hPa NNE 1.9 km/h   90% 0 mm WeatherDisplay:10.37 W/m2 BKN
00:13 11.1 °C 9.7 °C 1017.8 hPa Calm     91% 0 mm WeatherDisplay:10.37 W/m2 FEW
00:18 11.1 °C 9.7 °C 1017.8 hPa Calm     91% 0 mm WeatherDisplay:10.37 W/m2 FEW
00:23 11.3 °C 9.9 °C 1018.2 hPa NNE 1.9 km/h   91% 0 mm WeatherDisplay:10.37 W/m2 FEW
00:29 11.6 °C 10.1 °C 1018.2 hPa NE 1.9 km/h   91% 0 mm WeatherDisplay:10.37 W/m2 FEW
00:34 11.6 °C 10.2 °C 1018.2 hPa NE 1.9 km/h   91% 0 mm WeatherDisplay:10.37 W/m2 FEW
00:44 11.8 °C 10.2 °C 1018.2 hPa Calm     90% 0 mm WeatherDisplay:10.37 W/m2 SCT
00:49 11.7 °C 9.9 °C 1018.2 hPa Calm     89% 0 mm WeatherDisplay:10.37 W/m2 SCT
00:54 11.6 °C 9.8 °C 1018.5 hPa Calm     89% 0 mm WeatherDisplay:10.37 W/m2 SCT
00:59 11.6 °C 9.8 °C 1018.2 hPa Calm     89% 0 mm WeatherDisplay:10.37 W/m2 SCT
01:05 11.6 °C 9.8 °C 1018.2 hPa Calm     89% 0 mm WeatherDisplay:10.37 W/m2 OVC
01:10 11.6 °C 9.9 °C 1018.2 hPa Calm     90% 0 mm WeatherDisplay:10.37 W/m2 OVC
01:15 11.6 °C 9.9 °C 1018.5 hPa Calm     90% 0 mm WeatherDisplay:10.37 W/m2 OVC
01:25 11.7 °C 10.1 °C 1018.2 hPa Calm     90% 0 mm WeatherDisplay:10.37 W/m2 OVC
01:30 11.7 °C 10.1 °C 1018.2 hPa Calm     90% 0 mm WeatherDisplay:10.37 W/m2 OVC
01:35 11.7 °C 10.1 °C 1017.8 hPa Calm     90% 0 mm WeatherDisplay:10.37 W/m2 OVC
01:45 11.8 °C 10.2 °C 1018.2 hPa NE 1.9 km/h   90% 0 mm WeatherDisplay:10.37 W/m2 OVC
01:50 11.8 °C 10.2 °C 1018.2 hPa NE 1.9 km/h   90% 0 mm WeatherDisplay:10.37 W/m2 OVC
01:55 11.9 °C 10.3 °C 1018.2 hPa Calm     90% 0 mm WeatherDisplay:10.37 W/m2 OVC
02:06 11.9 °C 10.3 °C 1018.2 hPa Calm     90% 0 mm WeatherDisplay:10.37 W/m2 OVC
02:11 11.9 °C 10.3 °C 1018.2 hPa Calm     90% 0 mm WeatherDisplay:10.37 W/m2 OVC
02:16 11.9 °C 10.1 °C 1018.2 hPa Calm     89% 0 mm WeatherDisplay:10.37 W/m2 OVC
02:26 11.8 °C 10 °C 1018.2 hPa ENE 1.9 km/h   89% 0 mm WeatherDisplay:10.37 W/m2 OVC
02:36 11.7 °C 9.9 °C 1017.8 hPa East 1.9 km/h 1.9 km/h 89% 0 mm WeatherDisplay:10.37 W/m2 BKN
02:41 11.6 °C 9.8 °C 1017.8 hPa East 1.9 km/h   89% 0 mm WeatherDisplay:10.37 W/m2 BKN
02:46 11.5 °C 9.9 °C 1017.8 hPa East 1.9 km/h   90% 0 mm WeatherDisplay:10.37 W/m2 BKN
02:51 11.4 °C 9.9 °C 1017.8 hPa East 1.9 km/h   90% 0 mm WeatherDisplay:10.37 W/m2 BKN
02:56 11.4 °C 9.8 °C 1017.8 hPa Calm     90% 0 mm WeatherDisplay:10.37 W/m2 BKN
03:01 11.3 °C 9.7 °C 1017.8 hPa Calm     90% 0 mm WeatherDisplay:10.37 W/m2 SCT
03:06 11.3 °C 9.7 °C 1017.8 hPa Calm     90% 0 mm WeatherDisplay:10.37 W/m2 SCT
03:11 11.2 °C 9.7 °C 1017.8 hPa Calm     90% 0 mm WeatherDisplay:10.37 W/m2 SCT
03:17 11.2 °C 9.8 °C 1017.8 hPa Calm     91% 0 mm WeatherDisplay:10.37 W/m2 SCT
03:27 11.1 °C 9.6 °C 1017.5 hPa Calm     90% 0 mm WeatherDisplay:10.37 W/m2 SCT
03:32 11 °C 9.4 °C 1017.5 hPa Calm     90% 0 mm WeatherDisplay:10.37 W/m2 SCT
03:47 10.8 °C 9.4 °C 1017.5 hPa Calm     91% 0 mm WeatherDisplay:10.37 W/m2 SCT
03:57 10.7 °C 9.3 °C 1017.2 hPa Calm     91% 0 mm WeatherDisplay:10.37 W/m2 SCT
04:02 10.6 °C 9.2 °C 1017.2 hPa East 1.9 km/h 1.9 km/h 91% 0 mm WeatherDisplay:10.37 W/m2 CLR
04:07 10.5 °C 9.1 °C 1017.2 hPa East 1.9 km/h   91% 0 mm WeatherDisplay:10.37 W/m2 CLR
04:12 10.4 °C 9.1 °C 1017.2 hPa East 1.9 km/h   91% 0 mm WeatherDisplay:10.37 W/m2 CLR
04:18 10.4 °C 9.1 °C 1016.8 hPa Calm     91% 0 mm WeatherDisplay:10.37 W/m2 CLR
04:23 10.4 °C 9 °C 1017.2 hPa Calm     91% 0 mm WeatherDisplay:10.37 W/m2 CLR
04:33 10.2 °C 8.8 °C 1017.2 hPa Calm     91% 0 mm WeatherDisplay:10.37 W/m2 CLR
04:38 10 °C 8.6 °C 1017.2 hPa Calm     91% 0 mm WeatherDisplay:10.37 W/m2 CLR
04:43 9.8 °C 8.4 °C 1017.2 hPa Calm     91% 0 mm WeatherDisplay:10.37 W/m2 CLR
04:48 9.8 °C 8.4 °C 1017.2 hPa Calm     91% 0 mm WeatherDisplay:10.37 W/m2 CLR
04:53 9.7 °C 8.3 °C 1017.2 hPa East 1.9 km/h   91% 0 mm WeatherDisplay:10.37 W/m2 CLR
04:58 9.7 °C 8.4 °C 1017.2 hPa ENE 1.9 km/h   92% 0 mm WeatherDisplay:10.37 W/m2 CLR
05:03 9.6 °C 8.2 °C 1017.2 hPa NW 1.9 km/h   91% 0 mm WeatherDisplay:10.37 W/m2 CLR
05:08 9.6 °C 8.2 °C 1017.2 hPa WNW 1.9 km/h   91% 0 mm WeatherDisplay:10.37 W/m2 CLR
05:34 9.2 °C 7.7 °C 1017.2 hPa West 1.9 km/h   90% 0 mm WeatherDisplay:10.37 W/m2 CLR
05:44 9.1 °C 7.4 °C 1017.2 hPa West 1.9 km/h   89% 0 mm WeatherDisplay:10.37 W/m2 CLR
05:49 8.9 °C 7.2 °C 1017.2 hPa NW 1.9 km/h   89% 0 mm WeatherDisplay:10.37 W/m2 CLR
05:54 8.8 °C 7.1 °C 1017.5 hPa NNW 1.9 km/h   89% 0 mm WeatherDisplay:10.37 W/m2 CLR
05:59 8.7 °C 7 °C 1017.5 hPa NNW 1.9 km/h 1.9 km/h 89% 0 mm WeatherDisplay:10.37 W/m2 CLR
06:04 8.7 °C 6.8 °C 1017.5 hPa NNW 1.9 km/h   88% 0 mm WeatherDisplay:10.37 W/m2 CLR
06:09 8.6 °C 6.7 °C 1017.5 hPa NNW 1.9 km/h   88% 0 mm WeatherDisplay:10.37 W/m2 CLR
06:14 8.5 °C 6.4 °C 1017.5 hPa NNW 1.9 km/h 1.9 km/h 87% 0 mm WeatherDisplay:10.37 W/m2 CLR
06:19 8.5 °C 6.3 °C 1017.5 hPa WNW 1.9 km/h   86% 0 mm WeatherDisplay:10.37 W/m2 CLR
06:24 8.4 °C 6.1 °C 1017.5 hPa WSW 1.9 km/h   85% 0 mm WeatherDisplay:10.37 W/m2 CLR
06:30 8.4 °C 5.9 °C 1017.5 hPa SW 1.9 km/h 1.9 km/h 84% 0 mm WeatherDisplay:10.37 W/m2 CLR
06:35 8.4 °C 5.8 °C 1017.5 hPa Calm   1.6 km/h 84% 0 mm WeatherDisplay:10.37 W/m2 CLR
06:40 8.3 °C 5.6 °C 1017.5 hPa Calm   1.6 km/h 83% 0 mm WeatherDisplay:10.37 W/m2 CLR
06:45 8.2 °C 5.7 °C 1017.5 hPa WNW 1.9 km/h   84% 0 mm WeatherDisplay:10.37 W/m2 CLR
06:55 7.9 °C 5.3 °C 1017.5 hPa WNW 1.9 km/h   84% 0 mm WeatherDisplay:10.37 W/m2 CLR
07:00 7.8 °C 5.4 °C 1017.5 hPa Calm     85% 0 mm WeatherDisplay:10.37 W/m2 CLR
07:10 7.5 °C 5.2 °C 1017.5 hPa West 1.9 km/h   85% 0 mm WeatherDisplay:10.37 W/m2 SCT
07:15 7.4 °C 5.2 °C 1017.8 hPa Calm     86% 0 mm WeatherDisplay:10.37 W/m2 SCT
07:20 7.3 °C 5.1 °C 1017.8 hPa Calm     86% 0 mm WeatherDisplay:10.37 W/m2 SCT
07:25 7.2 °C 5 °C 1017.8 hPa Calm     86% 0 mm WeatherDisplay:10.37 W/m2 SCT
07:30 7.2 °C 5 °C 1018.2 hPa Calm     86% 0 mm WeatherDisplay:10.37 W/m2 SCT
07:35 7.1 °C 4.9 °C 1018.2 hPa Calm     86% 0 mm WeatherDisplay:10.37 W/m2 SCT
07:40 7.1 °C 4.9 °C 1018.2 hPa Calm     86% 0 mm WeatherDisplay:10.37 W/m2 SCT
07:46 7.1 °C 4.9 °C 1018.5 hPa Calm   0.2 km/h 86% 0 mm WeatherDisplay:10.37 W/m2 SCT
07:51 7.2 °C 4.8 °C 1018.5 hPa WNW 1.9 km/h   85% 0 mm WeatherDisplay:10.37 W/m2 SCT
07:56 7.2 °C 4.9 °C 1018.5 hPa WNW 1.9 km/h   85% 0 mm WeatherDisplay:10.37 W/m2 SCT
08:01 7.3 °C 4.8 °C 1018.8 hPa WNW 1.9 km/h   84% 0 mm WeatherDisplay:10.37 W/m2 FEW
08:06 7.5 °C 4.8 °C 1018.8 hPa NW 1.9 km/h   83% 0 mm WeatherDisplay:10.37 W/m2 FEW
08:11 7.8 °C 4.9 °C 1018.8 hPa WNW 3.7 km/h   82% 0 mm WeatherDisplay:10.37 W/m2 FEW
08:16 7.9 °C 4.9 °C 1018.8 hPa WNW 3.7 km/h   81% 0 mm WeatherDisplay:10.37 W/m2 FEW
08:21 8.1 °C 4.7 °C 1019.2 hPa North 1.9 km/h 1.9 km/h 79% 0 mm WeatherDisplay:10.37 W/m2 FEW
08:27 8.4 °C 4.8 °C 1019.2 hPa ESE 1.9 km/h 1.9 km/h 78% 0 mm WeatherDisplay:10.37 W/m2 FEW
08:37 8.8 °C 4.6 °C 1019.5 hPa East 1.9 km/h   75% 0 mm WeatherDisplay:10.37 W/m2 FEW
08:42 9 °C 4.8 °C 1019.5 hPa East 1.9 km/h   75% 0 mm WeatherDisplay:10.37 W/m2 FEW
08:47 9.3 °C 4.7 °C 1019.5 hPa ESE 5.6 km/h 5.6 km/h 73% 0 mm WeatherDisplay:10.37 W/m2 FEW
08:57 9.9 °C 4.7 °C 1019.5 hPa SW 3.7 km/h 3.7 km/h 70% 0 mm WeatherDisplay:10.37 W/m2 FEW
09:02 10.2 °C 4.7 °C 1019.5 hPa WSW 1.9 km/h   69% 0 mm WeatherDisplay:10.37 W/m2 FEW
09:07 10.3 °C 4.4 °C 1019.5 hPa WSW 5.6 km/h 5.6 km/h 67% 0 mm WeatherDisplay:10.37 W/m2 FEW
09:12 10.4 °C 4.8 °C 1019.5 hPa West 5.6 km/h   68% 0 mm WeatherDisplay:10.37 W/m2 FEW
09:17 10.6 °C 4.4 °C 1019.5 hPa West 5.6 km/h 5.6 km/h 66% 0 mm WeatherDisplay:10.37 W/m2 FEW
09:22 10.7 °C 4.6 °C 1019.9 hPa NW 5.6 km/h   66% 0 mm WeatherDisplay:10.37 W/m2 FEW
09:27 10.8 °C 4.2 °C 1019.9 hPa WSW 3.7 km/h 3.7 km/h 64% 0 mm WeatherDisplay:10.37 W/m2 FEW
09:46 11.4 °C 4.4 °C 1019.9 hPa South 7.4 km/h 7.4 km/h 62% 0 mm WeatherDisplay:10.37 W/m2 FEW
09:51 11.6 °C 4.1 °C 1019.9 hPa SSE 7.4 km/h 7.4 km/h 60% 0 mm WeatherDisplay:10.37 W/m2 FEW
10:06 12 °C 4 °C 1019.9 hPa SSE 9.3 km/h 9.3 km/h 58% 0 mm WeatherDisplay:10.37 W/m2 SCT
10:16 12.3 °C 4.1 °C 1020.2 hPa SSE 7.4 km/h 7.4 km/h 57% 0 mm WeatherDisplay:10.37 W/m2 SCT
10:21 12.6 °C 4.6 °C 1019.9 hPa South 7.4 km/h 7.4 km/h 58% 0 mm WeatherDisplay:10.37 W/m2 SCT
10:26 12.9 °C 4.4 °C 1020.2 hPa South 7.4 km/h 7.4 km/h 56% 0 mm WeatherDisplay:10.37 W/m2 SCT
10:36 13.3 °C 4.2 °C 1020.2 hPa East 7.4 km/h 7.4 km/h 54% 0 mm WeatherDisplay:10.37 W/m2 SCT
10:47 13.8 °C 4.4 °C 1020.2 hPa WSW 9.3 km/h 9.3 km/h 53% 0 mm WeatherDisplay:10.37 W/m2 SCT
10:52 13.9 °C 4.4 °C 1020.2 hPa WSW 9.3 km/h 9.3 km/h 53% 0 mm WeatherDisplay:10.37 W/m2 SCT
10:57 13.7 °C 4.3 °C 1020.5 hPa NW 7.4 km/h   53% 0 mm WeatherDisplay:10.37 W/m2 SCT
11:02 13.7 °C 4.3 °C 1020.5 hPa NE 7.4 km/h 7.4 km/h 53% 0 mm WeatherDisplay:10.37 W/m2 SCT
11:07 13.7 °C 4 °C 1020.5 hPa East 7.4 km/h 7.4 km/h 52% 0 mm WeatherDisplay:10.37 W/m2 SCT
11:12 13.7 °C 4.6 °C 1020.5 hPa ESE 7.4 km/h 7.4 km/h 54% 0 mm WeatherDisplay:10.37 W/m2 SCT
11:17 13.8 °C 4.1 °C 1020.5 hPa SE 7.4 km/h 7.4 km/h 52% 0 mm WeatherDisplay:10.37 W/m2 SCT
11:22 14 °C 4.6 °C 1020.5 hPa SSW 5.6 km/h 5.6 km/h 53% 0 mm WeatherDisplay:10.37 W/m2 SCT
11:27 14.1 °C 4.3 °C 1020.5 hPa East 5.6 km/h   52% 0 mm WeatherDisplay:10.37 W/m2 SCT
11:52 14.4 °C 4.1 °C 1020.2 hPa South 5.6 km/h 5.6 km/h 50% 0 mm WeatherDisplay:10.37 W/m2 SCT
12:03 14.4 °C 4.2 °C 1019.9 hPa South 7.4 km/h 7.4 km/h 50% 0 mm WeatherDisplay:10.37 W/m2 BKN
12:08 14.5 °C 3.9 °C 1019.9 hPa SSW 7.4 km/h 7.4 km/h 49% 0 mm WeatherDisplay:10.37 W/m2 BKN
12:13 14.4 °C 3.6 °C 1019.9 hPa SSE 7.4 km/h 7.4 km/h 48% 0 mm WeatherDisplay:10.37 W/m2 BKN
12:18 14.5 °C 4.2 °C 1019.9 hPa SE 7.4 km/h 7.4 km/h 50% 0 mm WeatherDisplay:10.37 W/m2 BKN
12:23 14.5 °C 3.9 °C 1019.9 hPa SSE 7.4 km/h 7.4 km/h 49% 0 mm WeatherDisplay:10.37 W/m2 BKN
12:33 15.1 °C 4.4 °C 1019.5 hPa WSW 7.4 km/h 7.4 km/h 49% 0 mm WeatherDisplay:10.37 W/m2 BKN
12:43 15.2 °C 3.7 °C 1019.5 hPa South 7.4 km/h 7.4 km/h 46% 0 mm WeatherDisplay:10.37 W/m2 BKN
12:59 15.6 °C 4.3 °C 1019.2 hPa NNW 7.4 km/h   47% 0 mm WeatherDisplay:10.37 W/m2 BKN
13:04 15.8 °C 3.9 °C 1018.8 hPa NNW 7.4 km/h   45% 0 mm WeatherDisplay:10.37 W/m2 BKN
13:14 16 °C 3.7 °C 1018.8 hPa SW 5.6 km/h 5.6 km/h 44% 0 mm WeatherDisplay:10.37 W/m2 BKN
13:19 16 °C 3.4 °C 1018.5 hPa WSW 5.6 km/h   43% 0 mm WeatherDisplay:10.37 W/m2 BKN
13:24 15.9 °C 3.3 °C 1018.5 hPa SE 7.4 km/h 7.4 km/h 43% 0 mm WeatherDisplay:10.37 W/m2 BKN
13:29 15.9 °C 3.7 °C 1018.5 hPa East 7.4 km/h 7.4 km/h 44% 0 mm WeatherDisplay:10.37 W/m2 BKN
13:34 15.9 °C 3.7 °C 1018.5 hPa East 7.4 km/h 7.4 km/h 44% 0 mm WeatherDisplay:10.37 W/m2 BKN
13:44 15.8 °C 4.2 °C 1018.5 hPa WSW 7.4 km/h 7.4 km/h 46% 0 mm WeatherDisplay:10.37 W/m2 BKN
13:49 15.8 °C 3.6 °C 1018.5 hPa WSW 5.6 km/h 5.6 km/h 44% 0 mm WeatherDisplay:10.37 W/m2 BKN
14:00 15.6 °C 3.7 °C 1018.5 hPa North 7.4 km/h 7.4 km/h 45% 0 mm WeatherDisplay:10.37 W/m2 BKN
14:05 15.4 °C 3.6 °C 1018.5 hPa Calm   8 km/h 45% 0 mm WeatherDisplay:10.37 W/m2 BKN
14:10 15.4 °C 3.5 °C 1018.5 hPa Calm   3.2 km/h 45% 0 mm WeatherDisplay:10.37 W/m2 BKN
14:15 15.4 °C 4.1 °C 1018.5 hPa East 3.7 km/h 3.7 km/h 47% 0 mm WeatherDisplay:10.37 W/m2 BKN
14:20 15.4 °C 3.9 °C 1018.5 hPa SE 3.7 km/h 3.7 km/h 46% 0 mm WeatherDisplay:10.37 W/m2 BKN
14:25 15.4 °C 3.9 °C 1018.5 hPa SW 5.6 km/h   46% 0 mm WeatherDisplay:10.37 W/m2 BKN
14:35 15.5 °C 4.2 °C 1018.5 hPa West 1.9 km/h 1.9 km/h 47% 0 mm WeatherDisplay:10.37 W/m2 BKN
14:40 15.4 °C 3.5 °C 1018.2 hPa WNW 5.6 km/h 5.6 km/h 45% 0 mm WeatherDisplay:10.37 W/m2 BKN
14:45 15.3 °C 4 °C 1018.2 hPa West 7.4 km/h 7.4 km/h 47% 0 mm WeatherDisplay:10.37 W/m2 BKN
14:50 15.2 °C 4.5 °C 1018.2 hPa WNW 7.4 km/h 7.4 km/h 49% 0 mm WeatherDisplay:10.37 W/m2 BKN
14:55 15.1 °C 4.8 °C 1018.2 hPa NW 7.4 km/h 7.4 km/h 50% 0 mm WeatherDisplay:10.37 W/m2 BKN
15:01 15.1 °C 4.4 °C 1018.2 hPa West 7.4 km/h 7.4 km/h 49% 0 mm WeatherDisplay:10.37 W/m2 OVC
15:06 15.1 °C 3.8 °C 1018.2 hPa WSW 3.7 km/h 3.7 km/h 47% 0 mm WeatherDisplay:10.37 W/m2 OVC
15:11 15 °C 4.1 °C 1018.2 hPa WNW 3.7 km/h 3.7 km/h 48% 0 mm WeatherDisplay:10.37 W/m2 OVC
15:16 14.9 °C 3.7 °C 1017.8 hPa NE 9.3 km/h 9.3 km/h 47% 0 mm WeatherDisplay:10.37 W/m2 OVC
15:26 14.8 °C 3.9 °C 1017.8 hPa SE 5.6 km/h 5.6 km/h 48% 0 mm WeatherDisplay:10.37 W/m2 OVC
15:37 14.6 °C 4.2 °C 1017.8 hPa WNW 7.4 km/h   50% 0 mm WeatherDisplay:10.37 W/m2 OVC
15:42 14.4 °C 3.8 °C 1017.8 hPa West 5.6 km/h   49% 0 mm WeatherDisplay:10.37 W/m2 OVC
15:47 14.4 °C 3.8 °C 1017.8 hPa WSW 5.6 km/h 5.6 km/h 49% 0 mm WeatherDisplay:10.37 W/m2 OVC
15:52 14.3 °C 3.7 °C 1017.8 hPa SW 7.4 km/h 7.4 km/h 49% 0 mm WeatherDisplay:10.37 W/m2 OVC
15:57 14.2 °C 3.9 °C 1017.8 hPa ESE 7.4 km/h   50% 0 mm WeatherDisplay:10.37 W/m2 OVC
16:02 14.1 °C 4.1 °C 1018.2 hPa South 5.6 km/h   51% 0 mm WeatherDisplay:10.37 W/m2 OVC
16:07 13.9 °C 3.6 °C 1018.2 hPa SW 7.4 km/h   50% 0 mm WeatherDisplay:10.37 W/m2 OVC
16:12 13.7 °C 3.5 °C 1018.2 hPa SSW 7.4 km/h   50% 0 mm WeatherDisplay:10.37 W/m2 OVC
16:17 13.6 °C 3.7 °C 1018.2 hPa SW 5.6 km/h   51% 0 mm WeatherDisplay:10.37 W/m2 OVC
16:22 13.5 °C 3.6 °C 1018.2 hPa WSW 7.4 km/h   51% 0 mm WeatherDisplay:10.37 W/m2 OVC
16:27 13.4 °C 4 °C 1018.5 hPa SSW 7.4 km/h   53% 0 mm WeatherDisplay:10.37 W/m2 OVC
16:33 13.2 °C 3.3 °C 1018.5 hPa South 3.7 km/h 3.7 km/h 51% 0 mm WeatherDisplay:10.37 W/m2 OVC
16:38 13.1 °C 3.4 °C 1018.5 hPa SSW 3.7 km/h 3.7 km/h 52% 0 mm WeatherDisplay:10.37 W/m2 OVC
16:43 12.9 °C 4.1 °C 1018.5 hPa WSW 3.7 km/h   55% 0 mm WeatherDisplay:10.37 W/m2 OVC
16:58 12.4 °C 3.4 °C 1018.5 hPa WNW 3.7 km/h 3.7 km/h 54% 0 mm WeatherDisplay:10.37 W/m2 OVC
17:03 12.3 °C 3.5 °C 1018.5 hPa West 3.7 km/h   55% 0 mm WeatherDisplay:10.37 W/m2 OVC
17:08 12.1 °C 3.3 °C 1018.5 hPa West 1.9 km/h   55% 0 mm WeatherDisplay:10.37 W/m2 OVC
17:18 11.6 °C 3.6 °C 1018.8 hPa West 1.9 km/h 1.9 km/h 58% 0 mm WeatherDisplay:10.37 W/m2 OVC
17:23 11.6 °C 3.1 °C 1018.8 hPa West 5.6 km/h   56% 0 mm WeatherDisplay:10.37 W/m2 OVC
17:33 11.4 °C 2.9 °C 1018.8 hPa SW 3.7 km/h 3.7 km/h 56% 0 mm WeatherDisplay:10.37 W/m2 OVC
17:38 11.2 °C 2.9 °C 1018.8 hPa West 1.9 km/h   57% 0 mm WeatherDisplay:10.37 W/m2 OVC
17:44 11 °C 2.8 °C 1019.2 hPa West 3.7 km/h   57% 0 mm WeatherDisplay:10.37 W/m2 OVC
17:49 10.9 °C 3.2 °C 1019.2 hPa WSW 3.7 km/h   59% 0 mm WeatherDisplay:10.37 W/m2 OVC
17:54 10.7 °C 3.3 °C 1019.2 hPa West 1.9 km/h   60% 0 mm WeatherDisplay:10.37 W/m2 OVC
17:59 10.5 °C 2.8 °C 1019.2 hPa West 1.9 km/h   59% 0 mm WeatherDisplay:10.37 W/m2 OVC
18:09 10.4 °C 2.7 °C 1019.2 hPa West 1.9 km/h   59% 0 mm WeatherDisplay:10.37 W/m2 OVC
18:14 10.3 °C 2.8 °C 1019.2 hPa West 1.9 km/h   60% 0 mm WeatherDisplay:10.37 W/m2 OVC
18:19 10.2 °C 3 °C 1019.5 hPa WNW 1.9 km/h   61% 0 mm WeatherDisplay:10.37 W/m2 OVC
18:34 10.1 °C 2.4 °C 1019.5 hPa West 1.9 km/h 1.9 km/h 59% 0 mm WeatherDisplay:10.37 W/m2 OVC
18:39 9.9 °C 2.6 °C 1019.5 hPa West 1.9 km/h   60% 0 mm WeatherDisplay:10.37 W/m2 OVC
18:44 9.8 °C 2.4 °C 1019.5 hPa SSE 1.9 km/h   60% 0 mm WeatherDisplay:10.37 W/m2 OVC
18:50 9.7 °C 2.3 °C 1019.5 hPa ESE 1.9 km/h   60% 0 mm WeatherDisplay:10.37 W/m2 OVC
19:00 9.5 °C 2.1 °C 1019.5 hPa SE 1.9 km/h   60% 0 mm WeatherDisplay:10.37 W/m2 OVC
19:05 9.3 °C 2.4 °C 1019.5 hPa SE 1.9 km/h   62% 0 mm WeatherDisplay:10.37 W/m2 OVC
19:15 9.1 °C 2.2 °C 1019.5 hPa Calm     62% 0 mm WeatherDisplay:10.37 W/m2 OVC
19:20 8.9 °C 2.1 °C 1019.5 hPa SSE 1.9 km/h   62% 0 mm WeatherDisplay:10.37 W/m2 OVC
19:25 8.8 °C 2.2 °C 1019.5 hPa SSW 3.7 km/h   63% 0 mm WeatherDisplay:10.37 W/m2 OVC
19:30 8.7 °C 2.1 °C 1019.5 hPa South 3.7 km/h   63% 0 mm WeatherDisplay:10.37 W/m2 OVC
19:35 8.6 °C 2.1 °C 1019.5 hPa Calm     64% 0 mm WeatherDisplay:10.37 W/m2 OVC
19:40 8.4 °C 1.8 °C 1019.5 hPa Calm     63% 0 mm WeatherDisplay:10.37 W/m2 OVC
19:45 8.3 °C 2.1 °C 1019.9 hPa Calm     65% 0 mm WeatherDisplay:10.37 W/m2 OVC
19:55 8.1 °C 1.9 °C 1019.9 hPa Calm     65% 0 mm WeatherDisplay:10.37 W/m2 OVC
20:00 7.9 °C 1.8 °C 1019.5 hPa Calm     65% 0 mm WeatherDisplay:10.37 W/m2 OVC
20:06 7.8 °C 1.7 °C 1019.5 hPa Calm     65% 0 mm WeatherDisplay:10.37 W/m2 OVC
20:11 7.7 °C 1.6 °C 1019.5 hPa Calm     65% 0 mm WeatherDisplay:10.37 W/m2 BKN
20:21 7.6 °C 1.4 °C 1019.9 hPa Calm     65% 0 mm WeatherDisplay:10.37 W/m2 BKN
20:26 7.6 °C 0.9 °C 1019.9 hPa SW 1.9 km/h   63% 0 mm WeatherDisplay:10.37 W/m2 BKN
20:31 7.6 °C 1.2 °C 1019.9 hPa WSW 1.9 km/h   64% 0 mm WeatherDisplay:10.37 W/m2 BKN
20:36 7.4 °C 1.3 °C 1019.5 hPa WSW 1.9 km/h   65% 0 mm WeatherDisplay:10.37 W/m2 BKN
20:41 7.3 °C 1.2 °C 1019.5 hPa Calm     65% 0 mm WeatherDisplay:10.37 W/m2 BKN
20:46 7.2 °C 1.1 °C 1019.5 hPa Calm     65% 0 mm WeatherDisplay:10.37 W/m2 BKN
21:07 6.9 °C 0.9 °C 1019.9 hPa Calm     66% 0 mm WeatherDisplay:10.37 W/m2 BKN
21:17 6.7 °C 0.9 °C 1019.9 hPa Calm     67% 0 mm WeatherDisplay:10.37 W/m2 BKN
21:27 6.5 °C 1 °C 1019.9 hPa Calm     68% 0 mm WeatherDisplay:10.37 W/m2 BKN
21:32 6.4 °C 0.8 °C 1019.9 hPa Calm     67% 0 mm WeatherDisplay:10.37 W/m2 BKN
21:37 6.3 °C 0.8 °C 1019.9 hPa Calm     68% 0 mm WeatherDisplay:10.37 W/m2 BKN
21:42 6.3 °C 0.8 °C 1019.9 hPa Calm     68% 0 mm WeatherDisplay:10.37 W/m2 BKN
21:47 6.3 °C 1 °C 1019.9 hPa Calm     69% 0 mm WeatherDisplay:10.37 W/m2 BKN
21:52 6.2 °C 0.9 °C 1019.9 hPa Calm     69% 0 mm WeatherDisplay:10.37 W/m2 BKN
22:02 6.2 °C 0.7 °C 1019.9 hPa Calm     68% 0 mm WeatherDisplay:10.37 W/m2 BKN
22:07 6.2 °C 0.9 °C 1019.9 hPa Calm     69% 0 mm WeatherDisplay:10.37 W/m2 BKN
22:09 6.2 °C 0.9 °C 1019.9 hPa Calm     69% 0 mm WeatherDisplay:10.37 W/m2 BKN
22:15 6.2 °C 0.9 °C 1019.9 hPa Calm     69% 0 mm WeatherDisplay:10.37 W/m2 BKN
22:20 6.2 °C 0.7 °C 1019.9 hPa Calm     68% 0 mm WeatherDisplay:10.37 W/m2 BKN
22:25 6.2 °C 0.9 °C 1019.9 hPa Calm     69% 0 mm WeatherDisplay:10.37 W/m2 BKN
22:26 6.2 °C 0.7 °C 1019.9 hPa Calm     68% 0 mm WeatherDisplay:10.37 W/m2 BKN
22:28 6.2 °C 0.7 °C 1020.2 hPa Calm     68% 0 mm WeatherDisplay:10.37 W/m2 BKN
22:33 6.2 °C 0.5 °C 1020.2 hPa Calm     67% 0 mm WeatherDisplay:10.37 W/m2 BKN
22:39 6.2 °C 0.5 °C 1019.9 hPa Calm     67% 0 mm WeatherDisplay:10.37 W/m2 BKN
22:44 6.2 °C 0.7 °C 1020.2 hPa Calm     68% 0 mm WeatherDisplay:10.37 W/m2 BKN
22:49 6.1 °C 0.6 °C 1019.9 hPa Calm     68% 0 mm WeatherDisplay:10.37 W/m2 BKN
22:54 5.9 °C 0.7 °C 1020.2 hPa Calm     69% 0 mm WeatherDisplay:10.37 W/m2 BKN
23:00 5.8 °C 0.7 °C 1020.2 hPa Calm     70% 0 mm WeatherDisplay:10.37 W/m2 BKN
23:05 5.8 °C 0.4 °C 1020.2 hPa Calm   1.6 km/h 68% 0 mm WeatherDisplay:10.37 W/m2 BKN
23:15 5.9 °C 0.2 °C 1020.2 hPa Calm     67% 0 mm WeatherDisplay:10.37 W/m2 BKN
23:20 5.9 °C 0.3 °C 1020.5 hPa ESE 1.9 km/h   67% 0 mm WeatherDisplay:10.37 W/m2 BKN
23:25 5.9 °C 0 °C 1020.2 hPa ESE 1.9 km/h   66% 0 mm WeatherDisplay:10.37 W/m2 BKN
23:30 5.8 °C 0.2 °C 1020.2 hPa ESE 1.9 km/h   67% 0 mm WeatherDisplay:10.37 W/m2 BKN
23:35 5.7 °C 0.2 °C 1020.5 hPa Calm     68% 0 mm WeatherDisplay:10.37 W/m2 BKN
23:40 5.4 °C 0.4 °C 1020.5 hPa Calm     70% 0 mm WeatherDisplay:10.37 W/m2 BKN
23:45 5.3 °C 0.6 °C 1020.5 hPa Calm     72% 0 mm WeatherDisplay:10.37 W/m2 BKN
23:50 5.1 °C 0.8 °C 1020.5 hPa Calm     74% 0 mm WeatherDisplay:10.37 W/m2 BKN
23:56 4.9 °C 0.7 °C 1020.2 hPa Calm     74% 0 mm WeatherDisplay:10.37 W/m2 BKN
Piedmont Bend
Compliments of Weather Underground - 4 mb